createdAt,value
2023-02-03T00:00:43.617Z,33.10
2023-02-03T00:03:11.509Z,37.60
2023-02-03T00:05:40.938Z,33.55
2023-02-03T00:08:09.719Z,33.30
2023-02-03T00:10:40.479Z,32.42
2023-02-03T00:13:09.723Z,33.67
2023-02-03T00:15:37.586Z,32.67
2023-02-03T00:18:07.914Z,30.38
2023-02-03T00:20:35.893Z,31.10
2023-02-03T00:23:06.893Z,28.10
2023-02-03T00:25:35.386Z,29.20
2023-02-03T00:28:04.299Z,28.80
2023-02-03T00:30:32.947Z,28.38
2023-02-03T00:33:01.629Z,27.63
2023-02-03T00:35:31.223Z,28.65
2023-02-03T00:37:59.637Z,27.73
2023-02-03T00:40:29.833Z,28.88
2023-02-03T00:42:57.862Z,28.63
2023-02-03T00:45:25.691Z,29.80
2023-02-03T00:47:53.907Z,28.42
2023-02-03T00:50:21.708Z,28.45
2023-02-03T00:52:50.897Z,27.45
2023-02-03T00:55:18.819Z,30.27
2023-02-03T00:57:46.640Z,30.30
2023-02-03T01:00:15.309Z,31.25
2023-02-03T01:02:43.155Z,31.25
2023-02-03T01:05:11.194Z,30.92
2023-02-03T01:07:39.226Z,32.45
2023-02-03T01:10:09.388Z,34.28
2023-02-03T01:15:05.944Z,33.13
2023-02-03T01:17:33.900Z,31.85
2023-02-03T01:20:01.894Z,31.15
2023-02-03T01:22:30.916Z,32.38
2023-02-03T01:24:58.895Z,32.53
2023-02-03T01:27:28.127Z,30.52
2023-02-03T01:29:57.424Z,32.40
2023-02-03T01:32:25.489Z,30.95
2023-02-03T01:34:53.538Z,31.58
2023-02-03T01:37:21.635Z,32.45
2023-02-03T01:39:49.527Z,31.60
2023-02-03T01:42:17.738Z,29.85
2023-02-03T01:44:49.348Z,29.65
2023-02-03T01:47:28.920Z,29.33
2023-02-03T01:50:03.100Z,29.67
2023-02-03T01:52:32.415Z,29.80
2023-02-03T01:55:03.907Z,30.95
2023-02-03T01:57:36.230Z,28.90
2023-02-03T02:00:07.904Z,29.02
2023-02-03T02:02:43.257Z,28.95
2023-02-03T02:05:18.508Z,31.80
2023-02-03T02:07:48.881Z,32.45
2023-02-03T02:10:17.154Z,32.03
2023-02-03T02:12:45.324Z,29.55
2023-02-03T02:15:16.221Z,29.13
2023-02-03T02:18:08.445Z,31.25
2023-02-03T02:21:13.463Z,29.83
2023-02-03T02:24:09.547Z,27.88
2023-02-03T02:26:52.835Z,27.92
2023-02-03T02:29:53.016Z,28.52
2023-02-03T02:32:32.273Z,29.17
2023-02-03T02:35:06.020Z,27.10
2023-02-03T02:37:49.247Z,27.85
2023-02-03T02:40:26.572Z,26.88
2023-02-03T02:43:05.802Z,26.60
2023-02-03T02:45:42.262Z,26.60
2023-02-03T02:48:18.146Z,28.23
2023-02-03T02:50:49.484Z,26.98
2023-02-03T02:53:21.998Z,26.25
2023-02-03T02:55:53.111Z,24.67
2023-02-03T02:58:22.802Z,25.80
2023-02-03T03:00:51.632Z,24.40
2023-02-03T03:03:22.783Z,24.27
2023-02-03T03:05:55.344Z,23.70
2023-02-03T03:08:35.941Z,24.05
2023-02-03T03:11:04.521Z,23.58
2023-02-03T03:13:37.707Z,23.55
2023-02-03T03:16:09.786Z,26.17
2023-02-03T03:18:44.815Z,22.75
2023-02-03T03:21:17.265Z,23.85
2023-02-03T03:23:49.721Z,22.83
2023-02-03T03:26:28.787Z,21.20
2023-02-03T03:29:02.744Z,22.20
2023-02-03T03:31:30.909Z,22.77
2023-02-03T03:34:00.475Z,21.63
2023-02-03T03:36:32.610Z,22.67
2023-02-03T03:39:06.129Z,21.27
2023-02-03T03:41:42.769Z,20.10
2023-02-03T03:44:16.234Z,21.02
2023-02-03T03:46:50.042Z,20.90
2023-02-03T03:49:21.680Z,21.70
2023-02-03T03:51:53.212Z,18.98
2023-02-03T03:54:24.431Z,18.42
2023-02-03T03:56:58.215Z,19.75
2023-02-03T03:59:30.466Z,18.42
2023-02-03T04:01:59.502Z,19.23
2023-02-03T04:04:29.650Z,20.83
2023-02-03T04:06:57.527Z,18.15
2023-02-03T04:09:25.833Z,22.77
2023-02-03T04:12:02.377Z,18.42
2023-02-03T04:14:31.219Z,17.45
2023-02-03T04:16:59.731Z,20.85
2023-02-03T04:19:29.397Z,17.75
2023-02-03T04:21:57.821Z,18.33
2023-02-03T04:24:25.630Z,18.58
2023-02-03T04:26:53.470Z,17.33
2023-02-03T04:29:21.347Z,18.73
2023-02-03T04:31:49.361Z,17.52
2023-02-03T04:34:17.409Z,17.88
2023-02-03T04:36:46.651Z,17.15
2023-02-03T04:39:14.567Z,15.75
2023-02-03T04:41:42.670Z,15.73
2023-02-03T04:44:10.727Z,15.02
2023-02-03T04:46:38.526Z,15.18
2023-02-03T04:49:06.906Z,14.10
2023-02-03T04:51:34.749Z,13.77
2023-02-03T04:54:04.033Z,18.83
2023-02-03T04:56:31.941Z,13.40
2023-02-03T04:58:59.836Z,14.82
2023-02-03T05:01:27.772Z,14.13
2023-02-03T05:03:55.729Z,17.83
2023-02-03T05:06:25.729Z,13.88
2023-02-03T05:08:53.667Z,14.00
2023-02-03T05:11:23.825Z,13.93
2023-02-03T05:13:52.090Z,11.57
2023-02-03T05:16:20.056Z,11.73
2023-02-03T05:18:47.969Z,12.15
2023-02-03T05:21:15.946Z,13.00
2023-02-03T05:23:43.831Z,11.93
2023-02-03T05:26:11.679Z,17.25
2023-02-03T05:28:41.128Z,13.48
2023-02-03T05:31:09.082Z,11.67
2023-02-03T05:33:37.053Z,11.57
2023-02-03T05:36:05.531Z,13.38
2023-02-03T05:38:33.368Z,15.82
2023-02-03T05:41:18.586Z,15.77
2023-02-03T05:43:48.089Z,14.93
2023-02-03T05:46:15.991Z,13.43
2023-02-03T05:48:43.870Z,14.85
2023-02-03T05:51:11.834Z,15.95
2023-02-03T05:53:40.011Z,16.95
2023-02-03T05:56:08.273Z,14.20
2023-02-03T05:58:36.119Z,16.13
2023-02-03T06:01:05.657Z,14.68
2023-02-03T06:03:33.534Z,14.40
2023-02-03T06:06:01.490Z,12.70
2023-02-03T06:08:29.331Z,12.45
2023-02-03T06:10:59.946Z,14.90
2023-02-03T06:13:28.659Z,11.30
2023-02-03T06:15:57.325Z,16.13
2023-02-03T06:18:26.654Z,12.27
2023-02-03T06:20:54.825Z,11.97
2023-02-03T06:23:22.726Z,11.68
2023-02-03T06:25:51.985Z,15.02
2023-02-03T06:28:20.012Z,14.23
2023-02-03T06:30:52.335Z,14.25
2023-02-03T06:33:20.555Z,14.23
2023-02-03T06:35:50.174Z,12.88
2023-02-03T06:38:18.044Z,15.50
2023-02-03T06:40:48.049Z,14.38
2023-02-03T06:43:16.544Z,14.27
2023-02-03T06:45:47.438Z,15.52
2023-02-03T06:48:15.953Z,15.82
2023-02-03T06:50:43.868Z,14.98
2023-02-03T06:53:13.051Z,17.88
2023-02-03T06:55:40.997Z,14.80
2023-02-03T06:58:08.924Z,14.82
2023-02-03T07:00:36.925Z,14.05
2023-02-03T07:03:05.154Z,13.30
2023-02-03T07:05:33.205Z,14.90
2023-02-03T07:08:01.092Z,14.10
2023-02-03T07:10:30.407Z,13.88
2023-02-03T07:13:03.817Z,13.80
2023-02-03T07:15:31.729Z,14.75
2023-02-03T07:17:59.668Z,14.15
2023-02-03T07:20:29.099Z,13.80
2023-02-03T07:22:58.826Z,12.98
2023-02-03T07:25:27.488Z,13.07
2023-02-03T07:27:56.840Z,13.32
2023-02-03T07:30:25.179Z,11.73
2023-02-03T07:32:54.135Z,12.55
2023-02-03T07:35:22.503Z,12.07
2023-02-03T07:37:50.414Z,12.20
2023-02-03T07:40:18.829Z,11.45
2023-02-03T07:42:48.180Z,11.60
2023-02-03T07:45:19.407Z,11.53
2023-02-03T07:47:47.273Z,10.85
2023-02-03T07:50:15.162Z,10.25
2023-02-03T07:52:43.096Z,9.80
2023-02-03T07:55:11.207Z,9.98
2023-02-03T07:57:43.423Z,10.02
2023-02-03T08:00:12.868Z,10.93
2023-02-03T08:02:42.332Z,9.80
2023-02-03T08:05:11.166Z,10.00
2023-02-03T08:07:39.448Z,9.20
2023-02-03T08:10:08.843Z,9.88
2023-02-03T08:12:37.052Z,9.63
2023-02-03T08:15:06.069Z,9.90
2023-02-03T08:17:34.559Z,9.25
2023-02-03T08:20:04.620Z,9.95
2023-02-03T08:22:32.519Z,11.90
2023-02-03T08:25:00.386Z,9.98
2023-02-03T08:27:28.294Z,9.60
2023-02-03T08:29:56.133Z,9.70
2023-02-03T08:32:24.948Z,9.52
2023-02-03T08:34:53.552Z,8.90
2023-02-03T08:37:25.465Z,8.73
2023-02-03T08:39:54.016Z,9.60
2023-02-03T08:42:22.196Z,7.82
2023-02-03T08:44:50.223Z,7.97
2023-02-03T08:47:18.248Z,7.90
2023-02-03T08:49:46.209Z,8.48
2023-02-03T08:52:14.962Z,8.82
2023-02-03T08:54:45.500Z,8.65
2023-02-03T08:57:14.489Z,7.82
2023-02-03T08:59:44.078Z,7.45
2023-02-03T09:02:15.882Z,7.32
2023-02-03T09:04:44.039Z,7.53
2023-02-03T09:07:11.953Z,6.88
2023-02-03T09:09:40.515Z,7.65
2023-02-03T09:12:12.295Z,7.78
2023-02-03T09:14:40.521Z,7.35
2023-02-03T09:17:09.496Z,8.30
2023-02-03T09:19:37.631Z,7.75
2023-02-03T09:22:05.941Z,7.70
2023-02-03T09:24:34.409Z,9.07
2023-02-03T09:27:02.562Z,8.63
2023-02-03T09:29:32.131Z,8.57
2023-02-03T09:32:00.161Z,9.50
2023-02-03T09:34:28.169Z,9.52
2023-02-03T09:36:56.033Z,10.70
2023-02-03T09:39:23.901Z,11.00
2023-02-03T09:42:33.836Z,11.68
2023-02-03T09:45:15.878Z,11.10
2023-02-03T09:47:45.580Z,10.80
2023-02-03T09:50:19.955Z,10.63
2023-02-03T09:52:49.001Z,12.85
2023-02-03T09:55:27.674Z,10.18
2023-02-03T09:58:02.254Z,10.27
2023-02-03T10:00:34.327Z,11.80
2023-02-03T10:03:08.744Z,11.50
2023-02-03T10:05:50.841Z,11.63
2023-02-03T10:08:31.184Z,12.25
2023-02-03T10:11:10.994Z,11.82
2023-02-03T10:13:52.192Z,11.65
2023-02-03T10:16:33.114Z,11.40
2023-02-03T10:19:04.421Z,10.80
2023-02-03T10:21:36.848Z,10.75
2023-02-03T10:24:11.905Z,10.55
2023-02-03T10:26:41.679Z,10.85
2023-02-03T10:29:19.790Z,11.85
2023-02-03T10:31:49.992Z,12.43
2023-02-03T10:36:56.505Z,11.00
2023-02-03T10:39:34.270Z,8.07
2023-02-03T10:42:03.402Z,9.38
2023-02-03T10:44:38.432Z,8.48
2023-02-03T10:47:26.127Z,10.38
2023-02-03T10:49:56.110Z,8.35
2023-02-03T10:52:30.223Z,7.82
2023-02-03T10:54:59.485Z,7.95
2023-02-03T10:57:30.812Z,7.32
2023-02-03T11:00:09.771Z,7.15
2023-02-03T11:02:39.276Z,7.00
2023-02-03T11:05:20.968Z,7.10
2023-02-03T11:07:49.515Z,6.50
2023-02-03T11:10:36.823Z,5.90
2023-02-03T11:13:19.388Z,6.72
2023-02-03T11:15:54.994Z,8.00
2023-02-03T11:18:45.379Z,4.47
2023-02-03T11:23:49.247Z,6.40
2023-02-03T11:26:22.066Z,6.18
2023-02-03T11:28:52.718Z,4.90
2023-02-03T11:31:26.598Z,7.05
2023-02-03T11:34:02.702Z,7.78
2023-02-03T11:36:33.346Z,7.25
2023-02-03T11:39:21.899Z,8.32
2023-02-03T11:41:50.419Z,7.78
2023-02-03T11:44:21.673Z,10.27
2023-02-03T11:46:53.489Z,14.02
2023-02-03T11:49:45.183Z,10.88
2023-02-03T11:52:33.931Z,11.40
2023-02-03T11:55:10.692Z,15.15
2023-02-03T11:57:47.741Z,11.77
2023-02-03T12:00:31.385Z,12.75
2023-02-03T12:03:36.005Z,12.07
2023-02-03T12:06:22.336Z,20.83
2023-02-03T12:09:09.729Z,13.50
2023-02-03T12:11:55.005Z,14.50
2023-02-03T12:14:40.426Z,17.10
2023-02-03T12:17:28.158Z,17.67
2023-02-03T12:20:12.564Z,16.85
2023-02-03T12:22:52.838Z,10.82
2023-02-03T12:28:32.471Z,12.93
2023-02-03T12:31:09.071Z,17.63
2023-02-03T12:33:44.379Z,21.70
2023-02-03T12:36:17.277Z,16.48
2023-02-03T12:38:52.564Z,14.35
2023-02-03T12:41:25.775Z,18.25
2023-02-03T12:43:59.467Z,19.48
2023-02-03T12:46:31.622Z,19.27
2023-02-03T12:49:05.327Z,19.70
2023-02-03T12:51:39.890Z,15.73
2023-02-03T12:54:20.521Z,24.23
2023-02-03T12:56:52.448Z,16.15
2023-02-03T12:59:25.074Z,19.73
2023-02-03T13:01:58.512Z,20.83
2023-02-03T13:04:34.117Z,21.98
2023-02-03T13:07:09.611Z,18.83
2023-02-03T13:09:45.782Z,24.15
2023-02-03T13:12:25.034Z,19.73
2023-02-03T13:14:57.591Z,18.63
2023-02-03T13:17:29.785Z,21.60
2023-02-03T13:20:03.654Z,16.52
2023-02-03T13:22:31.977Z,22.30
2023-02-03T13:25:10.568Z,18.58
2023-02-03T13:27:47.217Z,22.30
2023-02-03T13:30:31.027Z,24.65
2023-02-03T13:33:27.217Z,20.80
2023-02-03T13:36:09.521Z,21.05
2023-02-03T13:39:03.216Z,22.25
2023-02-03T13:41:41.190Z,16.02
2023-02-03T13:44:13.837Z,23.85
2023-02-03T13:46:42.664Z,21.45
2023-02-03T13:49:18.401Z,14.95
2023-02-03T13:51:47.652Z,18.77
2023-02-03T13:54:22.977Z,19.98
2023-02-03T13:56:59.861Z,25.38
2023-02-03T13:59:31.959Z,21.95
2023-02-03T14:02:34.843Z,16.08
2023-02-03T14:05:04.207Z,23.90
2023-02-03T14:07:34.536Z,23.17
2023-02-03T14:13:00.663Z,21.08
2023-02-03T14:15:33.950Z,18.85
2023-02-03T14:18:26.939Z,22.80
2023-02-03T14:21:11.377Z,25.45
2023-02-03T14:23:45.293Z,24.83
2023-02-03T14:26:21.031Z,20.48
2023-02-03T14:28:53.778Z,24.30
2023-02-03T14:31:23.964Z,22.23
2023-02-03T14:33:57.387Z,27.63
2023-02-03T14:36:45.362Z,19.75
2023-02-03T14:39:55.421Z,21.95
2023-02-03T14:42:41.140Z,22.05
2023-02-03T14:45:27.616Z,18.77
2023-02-03T14:48:10.041Z,20.65
2023-02-03T14:50:58.211Z,20.98
2023-02-03T14:53:42.446Z,18.65
2023-02-03T14:56:20.411Z,19.52
2023-02-03T14:58:53.758Z,23.55
2023-02-03T15:01:29.131Z,22.58
2023-02-03T15:04:23.174Z,17.73
2023-02-03T15:06:53.352Z,20.58
2023-02-03T15:09:34.039Z,22.10
2023-02-03T15:12:02.376Z,24.20
2023-02-03T15:14:32.205Z,22.05
2023-02-03T15:17:03.358Z,17.33
2023-02-03T15:19:35.857Z,21.70
2023-02-03T15:22:04.025Z,24.58
2023-02-03T15:24:38.152Z,20.77
2023-02-03T15:27:06.116Z,21.08
2023-02-03T15:29:36.455Z,21.67
2023-02-03T15:32:11.481Z,18.52
2023-02-03T15:34:43.823Z,16.73
2023-02-03T15:37:18.348Z,22.88
2023-02-03T15:39:56.875Z,23.92
2023-02-03T15:42:31.807Z,20.25
2023-02-03T15:45:07.094Z,22.92
2023-02-03T15:47:42.664Z,23.33
2023-02-03T15:50:30.663Z,24.50
2023-02-03T15:53:05.351Z,24.67
2023-02-03T15:55:38.472Z,23.52
2023-02-03T15:58:07.418Z,18.45
2023-02-03T16:00:39.244Z,17.77
2023-02-03T16:03:23.062Z,18.85
2023-02-03T16:05:51.431Z,22.60
2023-02-03T16:08:46.177Z,17.40
2023-02-03T16:11:32.153Z,18.20
2023-02-03T16:14:01.811Z,21.33
2023-02-03T16:16:33.316Z,22.13
2023-02-03T16:19:05.018Z,17.08
2023-02-03T16:21:36.012Z,22.73
2023-02-03T16:24:05.536Z,20.88
2023-02-03T16:26:38.392Z,17.40
2023-02-03T16:29:33.660Z,15.80
2023-02-03T16:32:19.428Z,27.80
2023-02-03T16:35:06.424Z,23.85
2023-02-03T16:37:53.911Z,23.70
2023-02-03T16:40:41.520Z,22.27
2023-02-03T16:43:31.221Z,21.10
2023-02-03T16:46:18.220Z,23.27
2023-02-03T16:49:03.605Z,21.67
2023-02-03T16:51:40.201Z,21.73
2023-02-03T16:54:10.996Z,26.73
2023-02-03T16:56:39.017Z,23.90
2023-02-03T16:59:06.928Z,23.23
2023-02-03T17:01:35.879Z,21.77
2023-02-03T17:04:03.981Z,22.73
2023-02-03T17:06:32.922Z,24.95
2023-02-03T17:09:02.198Z,24.77
2023-02-03T17:11:30.381Z,17.88
2023-02-03T17:13:58.619Z,17.40
2023-02-03T17:16:27.944Z,18.15
2023-02-03T17:18:56.203Z,20.67
2023-02-03T17:21:28.985Z,27.02
2023-02-03T17:23:58.343Z,21.77
2023-02-03T17:26:27.637Z,24.10
2023-02-03T17:28:55.474Z,26.60
2023-02-03T17:31:23.571Z,20.05
2023-02-03T17:33:52.892Z,22.33
2023-02-03T17:36:22.151Z,26.70
2023-02-03T17:55:26.108Z,28.42
2023-02-03T17:57:55.412Z,27.63
2023-02-03T18:00:23.654Z,19.25
2023-02-03T18:02:53.403Z,18.95
2023-02-03T18:05:21.283Z,19.88
2023-02-03T18:07:49.605Z,23.90
2023-02-03T18:10:18.002Z,26.33
2023-02-03T18:12:46.911Z,17.13
2023-02-03T18:15:18.073Z,18.67
2023-02-03T18:17:45.935Z,21.42
2023-02-03T18:20:14.754Z,17.60
2023-02-03T18:22:45.098Z,19.15
2023-02-03T18:25:16.807Z,23.52
2023-02-03T18:27:46.810Z,18.80
2023-02-03T18:30:18.244Z,19.63
2023-02-03T18:32:47.709Z,20.88
2023-02-03T18:35:17.304Z,16.90
2023-02-03T18:37:45.734Z,17.80
2023-02-03T18:40:14.435Z,15.30
2023-02-03T18:42:42.955Z,16.85
2023-02-03T18:45:12.828Z,18.65
2023-02-03T18:47:42.192Z,19.70
2023-02-03T18:50:10.898Z,17.47
2023-02-03T18:52:38.819Z,19.30
2023-02-03T18:55:07.287Z,18.13
2023-02-03T18:57:35.260Z,22.58
2023-02-03T19:00:03.500Z,17.58
2023-02-03T19:02:31.489Z,21.25
2023-02-03T19:05:01.131Z,22.17
2023-02-03T19:07:29.781Z,20.90
2023-02-03T19:09:57.576Z,18.00
2023-02-03T19:12:27.629Z,19.38
2023-02-03T19:14:55.539Z,17.23
2023-02-03T19:17:24.793Z,18.50
2023-02-03T19:19:53.000Z,25.23
2023-02-03T19:22:22.423Z,17.05
2023-02-03T19:24:50.391Z,26.60
2023-02-03T19:27:18.337Z,19.48
2023-02-03T19:29:46.196Z,22.52
2023-02-03T19:32:14.682Z,20.83
2023-02-03T19:34:42.692Z,21.10
2023-02-03T19:37:10.660Z,27.08
2023-02-03T19:39:39.949Z,26.10
2023-02-03T19:42:09.377Z,25.70
2023-02-03T19:44:37.529Z,24.73
2023-02-03T19:47:05.576Z,23.42
2023-02-03T19:49:33.604Z,23.98
2023-02-03T19:52:01.557Z,22.15
2023-02-03T19:54:29.639Z,25.13
2023-02-03T19:56:58.949Z,23.75
2023-02-03T19:59:26.895Z,23.05
2023-02-03T20:01:56.613Z,27.60
2023-02-03T20:04:26.033Z,26.10
2023-02-03T20:06:54.145Z,25.23
2023-02-03T20:09:22.054Z,21.38
2023-02-03T20:11:49.956Z,32.72
2023-02-03T20:14:19.195Z,27.33
2023-02-03T20:16:50.571Z,25.67
2023-02-03T20:19:18.691Z,22.00
2023-02-03T20:21:47.118Z,29.40
2023-02-03T20:24:14.914Z,19.48
2023-02-03T20:26:42.811Z,22.17
2023-02-03T20:29:10.904Z,19.75
2023-02-03T20:31:40.374Z,25.20
2023-02-03T20:34:08.614Z,18.70
2023-02-03T20:36:36.637Z,21.10
2023-02-03T20:39:04.766Z,22.83
2023-02-03T20:41:33.035Z,19.45
2023-02-03T20:44:02.040Z,22.17
2023-02-03T20:46:30.043Z,24.55
2023-02-03T20:48:59.337Z,25.45
2023-02-03T20:51:29.256Z,23.23
2023-02-03T20:53:57.604Z,17.10
2023-02-03T20:56:26.494Z,27.60
2023-02-03T20:58:55.004Z,24.67
2023-02-03T21:01:23.544Z,24.25
2023-02-03T21:04:08.636Z,32.05
2023-02-03T21:06:38.130Z,25.15
2023-02-03T21:09:14.148Z,27.08
2023-02-03T21:11:42.438Z,25.73
2023-02-03T21:14:19.988Z,21.95
2023-02-03T21:16:48.923Z,24.27
2023-02-03T21:19:29.719Z,24.25
2023-02-03T21:21:59.474Z,23.88
2023-02-03T21:24:30.101Z,27.52
2023-02-03T21:26:58.929Z,22.25
2023-02-03T21:29:30.049Z,21.92
2023-02-03T21:31:58.270Z,21.20
2023-02-03T21:34:29.497Z,24.40
2023-02-03T21:36:59.670Z,29.15
2023-02-03T21:39:29.437Z,24.98
2023-02-03T21:41:58.032Z,27.42
2023-02-03T21:44:32.635Z,27.65
2023-02-03T21:47:04.942Z,24.42
2023-02-03T21:49:34.732Z,22.77
2023-02-03T21:52:04.660Z,24.45
2023-02-03T21:54:33.881Z,21.13
2023-02-03T21:57:02.253Z,25.63
2023-02-03T21:59:42.217Z,26.42
2023-02-03T22:02:49.715Z,31.25
2023-02-03T22:05:17.742Z,24.52
2023-02-03T22:07:46.948Z,24.13
2023-02-03T22:10:15.019Z,26.02
2023-02-03T22:12:43.033Z,26.92
2023-02-03T22:15:12.377Z,24.67
2023-02-03T22:17:40.620Z,28.47
2023-02-03T22:20:09.002Z,24.92
2023-02-03T22:22:37.046Z,24.30
2023-02-03T22:25:06.985Z,31.17
2023-02-03T22:27:34.902Z,26.08
2023-02-03T22:30:02.910Z,22.23
2023-02-03T22:32:31.092Z,26.92
2023-02-03T22:34:59.030Z,26.58
2023-02-03T22:37:26.899Z,24.52
2023-02-03T22:39:54.854Z,28.05
2023-02-03T22:42:24.445Z,27.90
2023-02-03T22:44:52.471Z,29.25
2023-02-03T22:47:20.377Z,28.92
2023-02-03T22:49:48.306Z,25.73
2023-02-03T22:52:16.206Z,20.48
2023-02-03T22:54:44.382Z,21.38
2023-02-03T22:57:12.274Z,21.48
2023-02-03T22:59:41.481Z,19.10
2023-02-03T23:02:09.419Z,13.90
2023-02-03T23:04:37.427Z,18.48
2023-02-03T23:07:05.270Z,19.05
2023-02-03T23:09:33.304Z,19.38
2023-02-03T23:12:01.419Z,17.25
2023-02-03T23:14:29.292Z,22.38
2023-02-03T23:16:58.676Z,26.23
2023-02-03T23:19:26.704Z,24.57
2023-02-03T23:21:54.662Z,25.08
2023-02-03T23:24:22.562Z,25.52
2023-02-03T23:26:50.533Z,19.60
2023-02-03T23:29:18.479Z,19.67
2023-02-03T23:31:46.444Z,24.60
2023-02-03T23:34:33.036Z,22.63
2023-02-03T23:37:01.353Z,19.65
2023-02-03T23:39:30.134Z,15.63
2023-02-03T23:41:58.617Z,22.20
2023-02-03T23:44:26.587Z,24.10
2023-02-03T23:46:54.422Z,15.23
2023-02-03T23:49:23.842Z,26.30
2023-02-03T23:51:51.768Z,19.70
2023-02-03T23:54:19.782Z,24.80
2023-02-03T23:56:47.676Z,20.58
2023-02-03T23:59:15.563Z,22.98
